Terminal Aerodrome Forecast
Issued by NWS

Home | Current Version | Previous Version | Text Only | Print | Product List | Glossary On
Versions: 1 2 3 4 5 6 7 8 9 10 11 12 13 14 15 16 17 18 19 20 21 22 23 24 25 26 27
114
FTUS42 KGSP 231720
TAFAND
TAF
KAND 231720Z 2318/2418 21006KT P6SM BKN026
     FM231900 17003KT P6SM BKN045
     FM240100 20004KT P6SM SCT060 BKN120
     FM240900 17003KT 5SM BR BKN040
     FM241200 18003KT 3SM BR BKN006
     FM241500 20006KT P6SM BKN009
     FM241600 21010KT P6SM BKN016=

USA.gov is the U.S. government's official web portal to all federal, state and local government web resources and services.